createdAt,value
2022-11-16T00:00:01.509Z,46.88
2022-11-16T00:02:31.489Z,46.89
2022-11-16T00:04:57.837Z,46.93
2022-11-16T00:07:24.468Z,47.17
2022-11-16T00:09:50.863Z,47.16
2022-11-16T00:12:17.369Z,47.50
2022-11-16T00:14:43.681Z,47.81
2022-11-16T00:17:10.382Z,47.42
2022-11-16T00:19:36.943Z,47.57
2022-11-16T00:22:03.442Z,47.69
2022-11-16T00:24:29.902Z,47.81
2022-11-16T00:26:56.347Z,47.92
2022-11-16T00:29:25.098Z,48.43
2022-11-16T00:31:52.490Z,48.39
2022-11-16T00:34:19.350Z,48.27
2022-11-16T00:36:47.035Z,48.62
2022-11-16T00:39:15.202Z,48.65
2022-11-16T00:41:42.443Z,48.49
2022-11-16T00:44:09.665Z,48.80
2022-11-16T00:46:36.146Z,48.75
2022-11-16T00:49:05.657Z,48.61
2022-11-16T00:51:33.080Z,48.76
2022-11-16T00:53:59.683Z,48.70
2022-11-16T00:56:26.026Z,49.10
2022-11-16T00:58:53.313Z,49.16
2022-11-16T01:01:19.741Z,49.14
2022-11-16T01:03:47.667Z,49.45
2022-11-16T01:06:15.648Z,49.69
2022-11-16T01:08:43.592Z,49.47
2022-11-16T01:11:30.941Z,49.83
2022-11-16T01:13:57.232Z,49.23
2022-11-16T01:16:24.113Z,49.49
2022-11-16T01:18:54.096Z,49.94
2022-11-16T01:21:21.992Z,50.07
2022-11-16T01:23:48.857Z,49.65
2022-11-16T01:26:15.391Z,49.59
2022-11-16T01:28:42.027Z,50.04
2022-11-16T01:31:09.616Z,49.98
2022-11-16T01:33:36.971Z,50.12
2022-11-16T01:36:08.471Z,50.10
2022-11-16T01:38:35.521Z,50.14
2022-11-16T01:41:02.400Z,50.25
2022-11-16T01:43:29.008Z,50.26
2022-11-16T01:45:55.538Z,50.08
2022-11-16T01:48:30.100Z,51.47
2022-11-16T01:50:57.956Z,50.37
2022-11-16T01:53:25.002Z,50.19
2022-11-16T01:55:52.279Z,50.21
2022-11-16T01:58:23.322Z,51.08
2022-11-16T02:00:50.036Z,50.17
2022-11-16T02:03:20.609Z,51.44
2022-11-16T02:06:14.714Z,51.41
2022-11-16T02:09:18.262Z,51.59
2022-11-16T02:11:50.581Z,50.92
2022-11-16T02:14:38.538Z,51.26
2022-11-16T02:17:28.194Z,51.73
2022-11-16T02:20:12.425Z,51.40
2022-11-16T02:22:47.478Z,51.29
2022-11-16T02:25:36.015Z,51.76
2022-11-16T02:28:22.891Z,51.74
2022-11-16T02:30:53.723Z,51.12
2022-11-16T02:33:25.706Z,51.04
2022-11-16T02:35:56.857Z,51.38
2022-11-16T02:38:34.587Z,51.85
2022-11-16T02:41:14.226Z,51.88
2022-11-16T02:43:44.771Z,51.52
2022-11-16T02:46:26.894Z,52.12
2022-11-16T02:48:56.596Z,51.07
2022-11-16T02:51:26.462Z,51.51
2022-11-16T02:54:11.512Z,51.79
2022-11-16T02:57:02.495Z,51.85
2022-11-16T02:59:46.427Z,52.05
2022-11-16T03:02:50.615Z,52.20
2022-11-16T03:06:03.078Z,52.33
2022-11-16T03:08:54.653Z,51.83
2022-11-16T03:11:39.680Z,50.92
2022-11-16T03:14:10.387Z,51.49
2022-11-16T03:16:39.750Z,51.56
2022-11-16T03:19:10.404Z,51.62
2022-11-16T03:21:43.859Z,51.43
2022-11-16T03:24:10.555Z,51.65
2022-11-16T03:26:51.095Z,52.90
2022-11-16T03:29:31.960Z,52.46
2022-11-16T03:32:16.674Z,52.75
2022-11-16T03:34:55.936Z,51.95
2022-11-16T03:37:24.373Z,51.79
2022-11-16T03:39:53.177Z,52.32
2022-11-16T03:42:22.042Z,52.15
2022-11-16T03:44:49.578Z,51.83
2022-11-16T03:47:16.121Z,51.97
2022-11-16T03:49:46.691Z,52.46
2022-11-16T03:52:15.555Z,52.30
2022-11-16T03:54:42.495Z,51.67
2022-11-16T03:57:15.509Z,51.73
2022-11-16T03:59:43.666Z,52.11
2022-11-16T04:02:10.660Z,52.16
2022-11-16T04:04:55.837Z,52.09
2022-11-16T04:07:40.488Z,51.84
2022-11-16T04:10:26.203Z,51.82
2022-11-16T04:13:11.476Z,52.07
2022-11-16T04:15:56.574Z,51.97
2022-11-16T04:18:41.772Z,51.80
2022-11-16T04:21:37.662Z,52.99
2022-11-16T04:24:13.528Z,52.04
2022-11-16T04:27:03.082Z,52.24
2022-11-16T04:29:30.094Z,52.23
2022-11-16T04:32:14.890Z,52.13
2022-11-16T04:35:00.001Z,52.15
2022-11-16T04:37:44.847Z,52.45
2022-11-16T04:40:11.979Z,52.30
2022-11-16T04:42:38.518Z,52.28
2022-11-16T04:45:23.890Z,52.43
2022-11-16T04:47:51.036Z,52.64
2022-11-16T04:50:19.200Z,52.50
2022-11-16T04:52:45.924Z,52.45
2022-11-16T04:55:15.549Z,52.50
2022-11-16T04:57:43.018Z,52.62
2022-11-16T05:00:10.617Z,52.63
2022-11-16T05:02:37.198Z,52.58
2022-11-16T05:05:04.037Z,52.62
2022-11-16T05:07:30.612Z,52.51
2022-11-16T05:09:57.015Z,52.33
2022-11-16T05:12:26.388Z,52.63
2022-11-16T05:14:54.873Z,52.59
2022-11-16T05:17:22.832Z,52.45
2022-11-16T05:20:08.023Z,52.54
2022-11-16T05:22:37.028Z,52.43
2022-11-16T05:25:04.989Z,52.54
2022-11-16T05:27:31.731Z,52.73
2022-11-16T05:29:58.470Z,52.56
2022-11-16T05:32:26.172Z,52.32
2022-11-16T05:34:54.578Z,52.22
2022-11-16T05:37:21.373Z,52.41
2022-11-16T05:39:48.175Z,52.28
2022-11-16T05:42:14.742Z,52.69
2022-11-16T05:44:41.095Z,52.53
2022-11-16T05:47:07.467Z,52.58
2022-11-16T05:49:34.816Z,52.55
2022-11-16T05:52:01.410Z,52.00
2022-11-16T05:54:28.154Z,52.34
2022-11-16T05:56:55.261Z,52.75
2022-11-16T05:59:22.952Z,52.41
2022-11-16T06:01:51.967Z,52.49
2022-11-16T06:04:23.985Z,52.20
2022-11-16T06:06:50.597Z,52.30
2022-11-16T06:09:18.720Z,52.44
2022-11-16T06:11:45.659Z,52.38
2022-11-16T06:14:12.255Z,52.44
2022-11-16T06:16:38.646Z,52.38
2022-11-16T06:19:04.994Z,52.38
2022-11-16T06:21:31.767Z,52.50
2022-11-16T06:23:58.292Z,52.49
2022-11-16T06:26:24.656Z,52.58
2022-11-16T06:28:52.348Z,52.54
2022-11-16T06:31:18.882Z,52.63
2022-11-16T06:33:49.417Z,52.85
2022-11-16T06:36:17.806Z,52.51
2022-11-16T06:38:45.789Z,52.79
2022-11-16T06:41:12.325Z,52.34
2022-11-16T06:43:38.834Z,52.43
2022-11-16T06:46:06.868Z,52.33
2022-11-16T06:48:34.274Z,52.07
2022-11-16T06:51:01.549Z,52.25
2022-11-16T06:53:29.583Z,52.14
2022-11-16T06:56:01.030Z,52.55
2022-11-16T06:58:31.208Z,52.30
2022-11-16T07:00:58.697Z,52.17
2022-11-16T07:03:25.077Z,51.97
2022-11-16T07:05:51.768Z,51.97
2022-11-16T07:08:18.157Z,51.94
2022-11-16T07:10:44.483Z,52.06
2022-11-16T07:13:10.987Z,52.42
2022-11-16T07:15:37.464Z,52.22
2022-11-16T07:18:07.101Z,52.53
2022-11-16T07:20:34.751Z,52.27
2022-11-16T07:23:02.855Z,52.38
2022-11-16T07:25:29.794Z,52.04
2022-11-16T07:27:57.997Z,52.09
2022-11-16T07:30:24.919Z,52.25
2022-11-16T07:32:51.302Z,52.04
2022-11-16T07:35:17.709Z,52.18
2022-11-16T07:37:44.248Z,52.08
2022-11-16T07:40:10.913Z,52.10
2022-11-16T07:42:37.282Z,52.46
2022-11-16T07:45:03.826Z,52.79
2022-11-16T07:47:37.381Z,53.01
2022-11-16T07:50:05.840Z,52.74
2022-11-16T07:52:32.384Z,52.73
2022-11-16T07:54:59.056Z,52.36
2022-11-16T07:57:25.557Z,52.69
2022-11-16T07:59:51.899Z,52.63
2022-11-16T08:02:18.283Z,52.73
2022-11-16T08:04:45.231Z,52.76
2022-11-16T08:07:11.656Z,52.51
2022-11-16T08:09:39.300Z,52.80
2022-11-16T08:12:05.849Z,52.41
2022-11-16T08:14:32.484Z,52.23
2022-11-16T08:16:59.345Z,52.07
2022-11-16T08:19:26.379Z,51.67
2022-11-16T08:21:52.709Z,52.60
2022-11-16T08:24:19.218Z,51.93
2022-11-16T08:26:45.580Z,51.86
2022-11-16T08:29:12.331Z,51.65
2022-11-16T08:31:39.360Z,51.35
2022-11-16T08:34:05.653Z,51.58
2022-11-16T08:36:32.182Z,51.51
2022-11-16T08:38:58.623Z,51.22
2022-11-16T08:41:25.047Z,51.36
2022-11-16T08:43:55.819Z,51.24
2022-11-16T08:46:22.244Z,51.36
2022-11-16T08:48:48.918Z,51.11
2022-11-16T08:51:19.624Z,50.89
2022-11-16T08:53:48.669Z,51.07
2022-11-16T08:56:16.452Z,50.96
2022-11-16T08:58:45.240Z,50.91
2022-11-16T09:01:16.835Z,50.50
2022-11-16T09:03:44.207Z,50.51
2022-11-16T09:06:11.508Z,50.69
2022-11-16T09:08:39.771Z,50.31
2022-11-16T09:11:08.088Z,50.81
2022-11-16T09:13:34.563Z,50.67
2022-11-16T09:16:02.291Z,50.84
2022-11-16T09:18:28.991Z,50.99
2022-11-16T09:20:55.845Z,50.96
2022-11-16T09:23:25.470Z,50.83
2022-11-16T09:25:53.103Z,50.52
2022-11-16T09:28:20.726Z,50.56
2022-11-16T09:30:50.107Z,50.82
2022-11-16T09:33:16.957Z,49.86
2022-11-16T09:35:43.451Z,50.12
2022-11-16T09:38:10.306Z,49.79
2022-11-16T09:40:43.212Z,49.57
2022-11-16T09:43:45.835Z,49.55
2022-11-16T09:46:27.976Z,48.90
2022-11-16T09:48:58.014Z,48.91
2022-11-16T09:51:29.222Z,49.01
2022-11-16T09:54:02.163Z,48.64
2022-11-16T09:56:31.129Z,48.59
2022-11-16T09:59:06.431Z,48.05
2022-11-16T10:01:39.028Z,47.99
2022-11-16T10:04:17.495Z,47.38
2022-11-16T10:06:47.137Z,48.25
2022-11-16T10:09:14.886Z,47.82
2022-11-16T10:11:54.424Z,47.11
2022-11-16T10:14:45.635Z,46.58
2022-11-16T10:17:37.207Z,47.06
2022-11-16T10:20:30.916Z,47.02
2022-11-16T10:23:00.832Z,47.29
2022-11-16T10:25:41.880Z,47.21
2022-11-16T10:28:26.346Z,46.40
2022-11-16T10:31:26.598Z,46.59
2022-11-16T10:33:56.923Z,46.23
2022-11-16T10:36:29.406Z,46.12
2022-11-16T10:38:57.214Z,45.93
2022-11-16T10:41:41.564Z,45.07
2022-11-16T10:44:35.816Z,45.43
2022-11-16T10:47:14.898Z,44.76
2022-11-16T10:49:56.818Z,45.13
2022-11-16T10:52:23.630Z,45.72
2022-11-16T10:54:50.262Z,45.39
2022-11-16T10:57:17.714Z,45.28
2022-11-16T10:59:45.717Z,44.75
2022-11-16T11:02:36.865Z,44.38
2022-11-16T11:05:20.074Z,44.29
2022-11-16T11:07:55.451Z,44.34
2022-11-16T11:10:34.674Z,44.05
2022-11-16T11:13:09.167Z,43.95
2022-11-16T11:15:36.331Z,44.52
2022-11-16T11:18:23.972Z,43.56
2022-11-16T11:21:21.050Z,43.64
2022-11-16T11:23:53.240Z,43.26
2022-11-16T11:26:37.518Z,43.53
2022-11-16T11:29:20.592Z,43.12
2022-11-16T11:31:52.046Z,43.45
2022-11-16T11:34:31.743Z,42.80
2022-11-16T11:37:03.148Z,42.64
2022-11-16T11:39:31.196Z,43.30
2022-11-16T11:42:17.230Z,43.08
2022-11-16T11:44:47.400Z,43.34
2022-11-16T11:47:59.666Z,43.02
2022-11-16T11:50:42.738Z,42.02
2022-11-16T11:53:35.753Z,42.23
2022-11-16T11:56:04.222Z,42.98
2022-11-16T11:58:34.039Z,42.53
2022-11-16T12:01:24.862Z,42.29
2022-11-16T12:04:10.497Z,43.05
2022-11-16T12:06:55.635Z,43.12
2022-11-16T12:09:34.084Z,41.84
2022-11-16T12:12:29.748Z,42.06
2022-11-16T12:15:21.367Z,41.48
2022-11-16T12:18:31.962Z,41.66
2022-11-16T12:21:13.466Z,40.92
2022-11-16T12:23:54.979Z,41.28
2022-11-16T12:26:24.080Z,41.52
2022-11-16T12:29:02.549Z,41.14
2022-11-16T12:31:54.458Z,42.32
2022-11-16T12:34:36.619Z,40.35
2022-11-16T12:37:15.814Z,40.41
2022-11-16T12:40:08.304Z,40.11
2022-11-16T12:42:45.374Z,39.81
2022-11-16T12:45:43.687Z,39.75
2022-11-16T12:48:10.193Z,41.53
2022-11-16T12:50:50.283Z,39.57
2022-11-16T12:53:37.386Z,39.43
2022-11-16T12:56:15.849Z,39.52
2022-11-16T12:59:16.500Z,39.68
2022-11-16T13:01:57.583Z,39.65
2022-11-16T13:04:36.076Z,39.47
2022-11-16T13:07:11.131Z,40.15
2022-11-16T13:09:43.351Z,40.08
2022-11-16T13:12:15.364Z,39.77
2022-11-16T13:14:45.829Z,39.94
2022-11-16T13:17:34.867Z,39.45
2022-11-16T13:20:41.073Z,38.90
2022-11-16T13:23:46.047Z,39.42
2022-11-16T13:26:31.739Z,39.42
2022-11-16T13:29:15.208Z,39.29
2022-11-16T13:32:05.867Z,39.20
2022-11-16T13:34:35.276Z,39.66
2022-11-16T13:37:01.652Z,39.99
2022-11-16T13:39:58.802Z,39.41
2022-11-16T13:42:26.530Z,39.99
2022-11-16T13:44:53.449Z,39.99
2022-11-16T13:47:27.473Z,39.52
2022-11-16T13:49:58.013Z,39.38
2022-11-16T13:53:40.942Z,39.22
2022-11-16T13:55:38.734Z,39.12
2022-11-16T13:58:07.227Z,39.65
2022-11-16T14:00:36.380Z,39.70
2022-11-16T14:03:29.829Z,39.25
2022-11-16T14:05:57.553Z,39.66
2022-11-16T14:08:27.189Z,39.30
2022-11-16T14:10:53.642Z,39.81
2022-11-16T14:13:36.411Z,39.44
2022-11-16T14:16:15.090Z,39.22
2022-11-16T14:18:42.373Z,40.26
2022-11-16T14:21:30.630Z,40.02
2022-11-16T14:24:23.233Z,39.70
2022-11-16T14:27:18.670Z,39.99
2022-11-16T14:30:13.609Z,40.12
2022-11-16T14:32:49.444Z,40.20
2022-11-16T14:35:39.433Z,39.97
2022-11-16T14:38:16.344Z,40.47
2022-11-16T14:40:52.580Z,40.56
2022-11-16T14:43:31.501Z,40.38
2022-11-16T14:46:02.092Z,40.28
2022-11-16T14:48:29.144Z,40.62
2022-11-16T14:51:14.934Z,40.15
2022-11-16T14:53:50.546Z,40.89
2022-11-16T14:56:18.732Z,40.69
2022-11-16T14:59:16.199Z,40.64
2022-11-16T15:01:42.871Z,40.71
2022-11-16T15:04:12.017Z,40.59
2022-11-16T15:06:43.965Z,40.65
2022-11-16T15:09:18.093Z,40.83
2022-11-16T15:12:07.419Z,41.03
2022-11-16T15:14:40.471Z,41.13
2022-11-16T15:17:07.924Z,41.31
2022-11-16T15:19:34.706Z,41.23
2022-11-16T15:22:02.893Z,41.88
2022-11-16T15:24:33.429Z,41.17
2022-11-16T15:27:25.561Z,41.47
2022-11-16T15:29:52.065Z,41.54
2022-11-16T15:32:18.616Z,41.87
2022-11-16T15:34:53.140Z,41.55
2022-11-16T15:37:30.449Z,41.74
2022-11-16T15:40:00.086Z,41.53
2022-11-16T15:42:30.591Z,41.64
2022-11-16T15:45:01.192Z,41.36
2022-11-16T15:47:28.241Z,41.59
2022-11-16T15:49:55.415Z,42.07
2022-11-16T15:52:41.348Z,42.10
2022-11-16T15:55:20.818Z,42.07
2022-11-16T15:57:59.206Z,41.81
2022-11-16T16:00:26.720Z,41.70
2022-11-16T16:02:55.486Z,42.12
2022-11-16T16:05:39.663Z,41.45
2022-11-16T16:08:23.303Z,41.75
2022-11-16T16:11:10.500Z,41.69
2022-11-16T16:13:42.877Z,41.51
2022-11-16T16:16:30.389Z,41.41
2022-11-16T16:19:03.647Z,41.36
2022-11-16T16:21:42.392Z,41.62
2022-11-16T16:24:12.011Z,41.38
2022-11-16T16:26:38.389Z,41.73
2022-11-16T16:29:04.684Z,41.59
2022-11-16T16:31:31.008Z,41.91
2022-11-16T16:33:59.575Z,42.17
2022-11-16T16:36:26.000Z,42.51
2022-11-16T16:38:55.140Z,42.09
2022-11-16T16:41:24.560Z,42.46
2022-11-16T16:43:51.573Z,42.73
2022-11-16T16:46:18.415Z,42.33
2022-11-16T16:48:45.079Z,42.34
2022-11-16T16:51:12.453Z,42.58
2022-11-16T16:53:39.263Z,42.88
2022-11-16T16:56:06.491Z,42.81
2022-11-16T16:58:32.903Z,43.02
2022-11-16T17:01:04.192Z,43.30
2022-11-16T17:03:30.686Z,42.83
2022-11-16T17:06:02.478Z,43.15
2022-11-16T17:08:36.329Z,43.27
2022-11-16T17:11:03.249Z,42.91
2022-11-16T17:13:30.024Z,43.45
2022-11-16T17:15:56.486Z,43.13
2022-11-16T17:18:23.454Z,43.33
2022-11-16T17:20:50.114Z,43.23
2022-11-16T17:23:18.233Z,43.59
2022-11-16T17:25:44.637Z,43.63
2022-11-16T17:28:11.246Z,43.33
2022-11-16T17:30:37.596Z,43.48
2022-11-16T17:33:04.006Z,43.55
2022-11-16T17:35:30.567Z,43.17
2022-11-16T17:37:58.620Z,43.50
2022-11-16T17:40:24.987Z,43.31
2022-11-16T17:42:52.958Z,43.50
2022-11-16T17:45:19.468Z,43.60
2022-11-16T17:47:45.955Z,43.65
2022-11-16T17:50:12.748Z,43.42
2022-11-16T17:52:39.122Z,43.61
2022-11-16T17:55:06.081Z,43.64
2022-11-16T17:57:32.858Z,43.91
2022-11-16T17:59:59.384Z,43.77
2022-11-16T18:02:26.285Z,43.69
2022-11-16T18:04:52.706Z,44.05
2022-11-16T18:07:21.519Z,44.16
2022-11-16T18:09:47.978Z,44.02
2022-11-16T18:12:16.145Z,43.95
2022-11-16T18:14:42.670Z,43.79
2022-11-16T18:17:13.610Z,43.74
2022-11-16T18:19:39.996Z,44.13
2022-11-16T18:22:06.595Z,43.91
2022-11-16T18:24:33.034Z,43.83
2022-11-16T18:26:59.459Z,43.74
2022-11-16T18:29:25.835Z,44.05
2022-11-16T18:31:54.262Z,43.90
2022-11-16T18:34:20.561Z,43.85
2022-11-16T18:36:48.865Z,43.95
2022-11-16T18:39:15.221Z,43.75
2022-11-16T18:41:50.103Z,44.17
2022-11-16T18:44:20.970Z,43.63
2022-11-16T18:46:47.549Z,43.74
2022-11-16T18:49:13.846Z,43.94
2022-11-16T18:51:40.348Z,43.35
2022-11-16T18:54:06.935Z,43.34
2022-11-16T18:56:34.973Z,43.78
2022-11-16T18:59:01.747Z,43.43
2022-11-16T19:01:29.378Z,43.65
2022-11-16T19:03:56.788Z,43.67
2022-11-16T19:06:24.816Z,43.66
2022-11-16T19:08:59.113Z,43.99
2022-11-16T19:11:28.300Z,43.86
2022-11-16T19:14:00.858Z,44.36
2022-11-16T19:16:27.542Z,43.70
2022-11-16T19:18:53.828Z,43.91
2022-11-16T19:21:24.152Z,44.38
2022-11-16T19:23:54.243Z,44.49
2022-11-16T19:26:24.976Z,44.51
2022-11-16T19:28:52.759Z,44.49
2022-11-16T19:31:23.272Z,44.34
2022-11-16T19:34:18.727Z,44.87
2022-11-16T19:36:46.121Z,44.27
2022-11-16T19:39:12.425Z,44.45
2022-11-16T19:41:38.754Z,45.04
2022-11-16T19:44:05.154Z,44.87
2022-11-16T19:46:34.165Z,44.75
2022-11-16T19:49:00.888Z,44.98
2022-11-16T19:51:29.192Z,45.20
2022-11-16T19:53:56.484Z,44.94
2022-11-16T19:56:24.682Z,44.91
2022-11-16T19:58:51.594Z,45.20
2022-11-16T20:01:19.515Z,45.08
2022-11-16T20:03:47.500Z,45.07
2022-11-16T20:06:15.014Z,44.98
2022-11-16T20:08:42.816Z,45.17
2022-11-16T20:11:20.755Z,45.98
2022-11-16T20:13:51.199Z,45.86
2022-11-16T20:16:20.429Z,45.82
2022-11-16T20:18:47.562Z,45.91
2022-11-16T20:21:20.956Z,45.87
2022-11-16T20:23:48.090Z,45.91
2022-11-16T20:26:15.029Z,45.75
2022-11-16T20:28:43.137Z,46.04
2022-11-16T20:31:20.998Z,46.55
2022-11-16T20:33:53.442Z,46.51
2022-11-16T20:36:22.683Z,45.93
2022-11-16T20:38:49.615Z,45.86
2022-11-16T20:41:23.454Z,46.60
2022-11-16T20:43:51.734Z,46.26
2022-11-16T20:46:19.343Z,46.35
2022-11-16T20:48:46.131Z,46.16
2022-11-16T20:51:17.026Z,46.21
2022-11-16T20:53:44.628Z,46.41
2022-11-16T20:56:11.313Z,46.49
2022-11-16T20:58:38.948Z,46.16
2022-11-16T21:01:14.405Z,46.44
2022-11-16T21:03:42.469Z,46.13
2022-11-16T21:06:08.803Z,46.36
2022-11-16T21:08:37.492Z,46.80
2022-11-16T21:11:19.905Z,47.22
2022-11-16T21:14:07.381Z,46.79
2022-11-16T21:16:34.157Z,46.72
2022-11-16T21:19:01.287Z,46.67
2022-11-16T21:21:28.039Z,46.89
2022-11-16T21:23:57.534Z,46.82
2022-11-16T21:26:26.873Z,47.10
2022-11-16T21:28:55.641Z,47.09
2022-11-16T21:31:25.721Z,46.85
2022-11-16T21:33:53.999Z,47.02
2022-11-16T21:36:23.720Z,47.27
2022-11-16T21:38:51.056Z,47.18
2022-11-16T21:41:19.425Z,47.27
2022-11-16T21:43:46.201Z,46.95
2022-11-16T21:46:15.151Z,47.09
2022-11-16T21:48:42.253Z,47.06
2022-11-16T21:51:14.122Z,47.40
2022-11-16T21:53:42.020Z,47.32
2022-11-16T21:56:13.226Z,47.50
2022-11-16T21:58:40.790Z,47.11
2022-11-16T22:01:08.320Z,47.28
2022-11-16T22:03:35.722Z,47.26
2022-11-16T22:06:24.104Z,47.08
2022-11-16T22:08:50.665Z,47.25
2022-11-16T22:11:17.723Z,47.11
2022-11-16T22:13:44.490Z,46.87
2022-11-16T22:16:13.144Z,47.01
2022-11-16T22:18:39.541Z,47.37
2022-11-16T22:21:06.069Z,46.56
2022-11-16T22:23:33.525Z,46.82
2022-11-16T22:26:04.323Z,46.89
2022-11-16T22:28:33.109Z,47.04
2022-11-16T22:31:00.256Z,47.13
2022-11-16T22:33:26.686Z,46.84
2022-11-16T22:35:53.318Z,46.64
2022-11-16T22:38:19.654Z,46.97
2022-11-16T22:40:53.309Z,47.16
2022-11-16T22:43:21.567Z,47.19
2022-11-16T22:45:47.886Z,47.09
2022-11-16T22:48:14.725Z,47.05
2022-11-16T22:50:42.004Z,46.97
2022-11-16T22:53:09.764Z,46.92
2022-11-16T22:55:37.724Z,47.04
2022-11-16T22:58:05.480Z,46.90
2022-11-16T23:00:36.346Z,47.09
2022-11-16T23:03:05.553Z,46.92
2022-11-16T23:05:31.872Z,47.02
2022-11-16T23:07:58.230Z,46.89
2022-11-16T23:10:24.609Z,47.60
2022-11-16T23:13:09.357Z,47.18
2022-11-16T23:15:51.202Z,47.55
2022-11-16T23:18:19.661Z,47.32
2022-11-16T23:21:04.881Z,47.60
2022-11-16T23:23:49.454Z,47.57
2022-11-16T23:26:41.772Z,47.98
2022-11-16T23:29:11.055Z,47.60
2022-11-16T23:31:38.102Z,47.86
2022-11-16T23:34:05.067Z,47.93
2022-11-16T23:36:31.550Z,47.97
2022-11-16T23:38:57.960Z,47.88
2022-11-16T23:41:56.543Z,47.96
2022-11-16T23:44:23.118Z,47.96
2022-11-16T23:46:49.642Z,47.89
2022-11-16T23:49:15.956Z,47.75
2022-11-16T23:51:42.287Z,47.96
2022-11-16T23:54:08.596Z,48.05
2022-11-16T23:56:34.905Z,47.87
2022-11-16T23:59:01.241Z,47.81
